Time,TemperatureF,DewpointF,PressureIn,WindDirection,WindDirectionDegrees,WindSpeedMPH,WindSpeedGustMPH,Humidity,HourlyPrecipIn,Conditions,Clouds,dailyrainin,SoftwareType,DateUTC
2013-05-10 00:00:00,62.4,61.5,29.81,WSW,252,0.0,7.0,97,0.00,,CLR,0.00,VWS V14.01,2013-05-10 05:00:00,
2013-05-10 00:03:00,62.4,61.5,29.81,West,263,1.0,3.0,97,0.00,,OVC010,0.00,VWS V14.01,2013-05-10 05:03:00,
2013-05-10 00:08:00,62.3,61.4,29.81,WNW,284,1.0,3.0,97,0.00,,OVC010,0.00,VWS V14.01,2013-05-10 05:08:00,
2013-05-10 00:10:00,62.3,61.4,29.81,WNW,284,1.0,3.0,97,0.00,,CLR,0.00,VWS V14.01,2013-05-10 05:10:00,
2013-05-10 00:13:00,62.3,61.4,29.82,WNW,283,0.0,4.0,97,0.00,,OVC010,0.00,VWS V14.01,2013-05-10 05:13:00,
2013-05-10 00:18:00,62.3,61.4,29.82,West,276,1.0,4.0,97,0.00,,OVC010,0.00,VWS V14.01,2013-05-10 05:18:00,
2013-05-10 00:20:00,62.3,61.4,29.82,West,276,1.0,4.0,97,0.00,,CLR,0.00,VWS V14.01,2013-05-10 05:20:00,
2013-05-10 00:23:00,62.2,61.3,29.82,NW,311,3.0,5.0,97,0.00,,OVC023,0.00,VWS V14.01,2013-05-10 05:23:00,
2013-05-10 00:28:00,62.2,61.3,29.82,West,279,1.0,8.0,97,0.00,,OVC023,0.00,VWS V14.01,2013-05-10 05:28:00,
2013-05-10 00:30:00,62.2,61.3,29.82,West,279,1.0,8.0,97,0.00,,CLR,0.00,VWS V14.01,2013-05-10 05:30:00,
2013-05-10 00:33:00,62.1,61.2,29.81,West,273,1.0,3.0,97,0.00,,OVC023,0.00,VWS V14.01,2013-05-10 05:33:00,
2013-05-10 00:38:00,62.0,61.1,29.81,WNW,293,1.0,2.0,97,0.00,,OVC023,0.00,VWS V14.01,2013-05-10 05:38:00,
2013-05-10 00:40:00,62.0,61.1,29.81,WNW,293,2.0,3.0,97,0.00,,CLR,0.00,VWS V14.01,2013-05-10 05:40:00,
2013-05-10 00:44:00,62.0,61.1,29.81,WNW,288,0.0,2.0,97,0.00,,BKN025,0.00,VWS V14.01,2013-05-10 05:44:00,
2013-05-10 00:49:00,61.8,60.9,29.81,WSW,256,2.0,3.0,97,0.00,,BKN025,0.00,VWS V14.01,2013-05-10 05:49:00,
2013-05-10 00:50:00,61.8,60.9,29.81,West,269,0.0,2.0,97,0.00,,CLR,0.00,VWS V14.01,2013-05-10 05:50:00,
2013-05-10 00:54:00,61.7,60.8,29.81,WNW,290,0.0,3.0,97,0.00,,BKN025,0.00,VWS V14.01,2013-05-10 05:54:00,
2013-05-10 00:59:00,61.6,60.7,29.81,WNW,292,0.0,0.0,97,0.00,,BKN025,0.00,VWS V14.01,2013-05-10 05:59:00,
2013-05-10 01:00:00,61.6,60.7,29.81,WNW,293,0.0,3.0,97,0.00,,CLR,0.00,VWS V14.01,2013-05-10 06:00:00,
2013-05-10 01:04:00,61.4,60.5,29.82,West,266,1.0,1.0,97,0.00,,BKN008,0.00,VWS V14.01,2013-05-10 06:04:00,
2013-05-10 01:09:00,61.4,60.5,29.82,WSW,250,3.0,5.0,97,0.00,,BKN008,0.00,VWS V14.01,2013-05-10 06:09:00,
2013-05-10 01:10:00,61.4,60.5,29.82,WSW,250,1.0,1.0,97,0.00,,CLR,0.00,VWS V14.01,2013-05-10 06:10:00,
2013-05-10 01:14:00,61.4,60.5,29.81,North,352,1.0,5.0,97,0.00,,BKN008,0.00,VWS V14.01,2013-05-10 06:14:00,
2013-05-10 01:19:00,61.3,60.4,29.81,WSW,245,0.0,1.0,97,0.00,,BKN008,0.00,VWS V14.01,2013-05-10 06:19:00,
2013-05-10 01:20:00,61.3,60.4,29.81,WSW,243,1.0,5.0,97,0.00,,CLR,0.00,VWS V14.01,2013-05-10 06:20:00,
2013-05-10 01:24:00,61.2,60.3,29.81,WSW,255,3.0,4.0,97,0.00,,OVC021,0.00,VWS V14.01,2013-05-10 06:24:00,
2013-05-10 01:29:00,61.2,60.3,29.81,WSW,250,3.0,3.0,97,0.00,,OVC021,0.00,VWS V14.01,2013-05-10 06:29:00,
2013-05-10 01:30:00,61.2,60.3,29.81,WSW,252,1.0,4.0,97,0.00,,CLR,0.00,VWS V14.01,2013-05-10 06:30:00,
2013-05-10 01:34:00,61.1,60.2,29.82,WSW,251,2.0,4.0,97,0.00,,OVC021,0.00,VWS V14.01,2013-05-10 06:34:00,
2013-05-10 01:39:00,61.2,60.6,29.82,West,279,3.0,3.0,98,0.00,,OVC021,0.00,VWS V14.01,2013-05-10 06:39:00,
2013-05-10 01:40:00,61.2,60.6,29.82,West,265,1.0,4.0,98,0.00,,CLR,0.00,VWS V14.01,2013-05-10 06:40:00,
2013-05-10 01:44:00,61.2,60.6,29.82,WSW,255,2.0,4.0,98,0.00,,SCT021,0.00,VWS V14.01,2013-05-10 06:44:00,
2013-05-10 01:49:00,61.2,60.6,29.82,West,267,0.0,0.0,98,0.00,,SCT021,0.00,VWS V14.01,2013-05-10 06:49:00,
2013-05-10 01:50:00,61.2,60.6,29.82,West,267,0.0,4.0,98,0.00,,CLR,0.00,VWS V14.01,2013-05-10 06:50:00,
2013-05-10 01:55:00,61.2,60.6,29.82,WNW,285,4.0,8.0,98,0.00,,SCT021,0.00,VWS V14.01,2013-05-10 06:55:00,
2013-05-10 02:00:00,61.1,60.5,29.82,WSW,253,3.0,9.0,98,0.00,,CLR,0.00,VWS V14.01,2013-05-10 07:00:00,
2013-05-10 02:05:00,61.1,60.2,29.82,West,278,1.0,9.0,97,0.00,,CLR,0.00,VWS V14.01,2013-05-10 07:05:00,
2013-05-10 02:10:00,61.0,60.2,29.82,WNW,288,2.0,3.0,97,0.00,,CLR,0.00,VWS V14.01,2013-05-10 07:10:00,
2013-05-10 02:15:00,60.9,60.0,29.82,West,259,3.0,4.0,97,0.00,,CLR,0.00,VWS V14.01,2013-05-10 07:15:00,
2013-05-10 02:20:00,60.9,60.0,29.82,WNW,283,2.0,2.0,97,0.00,,BKN100,0.00,VWS V14.01,2013-05-10 07:20:00,
2013-05-10 02:25:00,60.8,60.0,29.82,WNW,291,1.0,4.0,97,0.00,,BKN100,0.00,VWS V14.01,2013-05-10 07:25:00,
2013-05-10 02:30:00,60.7,59.8,29.82,West,272,2.0,3.0,97,0.00,,BKN100,0.00,VWS V14.01,2013-05-10 07:30:00,
2013-05-10 02:35:00,60.6,59.8,29.82,WSW,248,2.0,5.0,97,0.00,,BKN100,0.00,VWS V14.01,2013-05-10 07:35:00,
2013-05-10 02:40:00,60.6,59.8,29.81,NNW,335,3.0,3.0,97,0.00,,OVC030,0.00,VWS V14.01,2013-05-10 07:40:00,
2013-05-10 02:45:00,60.5,59.7,29.81,NW,306,1.0,4.0,97,0.00,,OVC030,0.00,VWS V14.01,2013-05-10 07:45:00,
2013-05-10 02:50:00,60.4,59.5,29.81,WNW,283,1.0,2.0,97,0.00,,OVC030,0.00,VWS V14.01,2013-05-10 07:50:00,
2013-05-10 02:55:00,60.4,59.5,29.81,West,271,1.0,6.0,97,0.00,,OVC030,0.00,VWS V14.01,2013-05-10 07:55:00,
2013-05-10 03:00:00,60.3,59.5,29.81,NW,311,1.0,2.0,97,0.00,,OVC012,0.00,VWS V14.01,2013-05-10 08:00:00,
2013-05-10 03:05:00,60.3,59.5,29.82,WNW,290,1.0,4.0,97,0.00,,OVC012,0.00,VWS V14.01,2013-05-10 08:05:00,
2013-05-10 03:10:00,60.3,59.7,29.81,NW,306,1.0,2.0,98,0.00,,OVC012,0.00,VWS V14.01,2013-05-10 08:10:00,
2013-05-10 03:16:00,60.3,59.7,29.81,NW,310,0.0,3.0,98,0.00,,OVC012,0.00,VWS V14.01,2013-05-10 08:16:00,
2013-05-10 03:20:00,60.4,59.8,29.81,NW,320,0.0,3.0,98,0.00,,CLR,0.00,VWS V14.01,2013-05-10 08:20:00,
2013-05-10 03:21:00,60.4,59.8,29.81,NNW,330,2.0,2.0,98,0.00,,OVC015,0.00,VWS V14.01,2013-05-10 08:21:00,
2013-05-10 03:26:00,60.4,59.8,29.81,WNW,283,1.0,3.0,98,0.00,,OVC015,0.00,VWS V14.01,2013-05-10 08:26:00,
2013-05-10 03:30:00,60.4,59.8,29.81,NW,309,1.0,3.0,98,0.00,,CLR,0.00,VWS V14.01,2013-05-10 08:30:00,
2013-05-10 03:31:00,60.5,59.9,29.81,WNW,287,0.0,2.0,98,0.00,,OVC015,0.00,VWS V14.01,2013-05-10 08:31:00,
2013-05-10 03:36:00,60.5,59.9,29.81,West,281,0.0,2.0,98,0.00,,OVC015,0.00,VWS V14.01,2013-05-10 08:36:00,
2013-05-10 03:40:00,60.5,59.9,29.81,NW,319,1.0,2.0,98,0.00,,CLR,0.00,VWS V14.01,2013-05-10 08:40:00,
2013-05-10 03:41:00,60.5,59.9,29.81,WNW,294,2.0,5.0,98,0.00,,OVC032,0.00,VWS V14.01,2013-05-10 08:41:00,
2013-05-10 03:46:00,60.5,59.9,29.81,WNW,302,2.0,5.0,98,0.00,,OVC032,0.00,VWS V14.01,2013-05-10 08:46:00,
2013-05-10 03:50:00,60.5,59.7,29.82,NW,306,1.0,5.0,97,0.00,,CLR,0.00,VWS V14.01,2013-05-10 08:50:00,
2013-05-10 03:51:00,60.5,59.7,29.82,WNW,303,2.0,3.0,97,0.00,,OVC032,0.00,VWS V14.01,2013-05-10 08:51:00,
2013-05-10 03:56:00,60.4,59.5,29.82,WNW,288,0.0,4.0,97,0.00,,OVC032,0.00,VWS V14.01,2013-05-10 08:56:00,
2013-05-10 04:00:00,60.4,59.5,29.82,WNW,288,0.0,4.0,97,0.00,,CLR,0.00,VWS V14.01,2013-05-10 09:00:00,
2013-05-10 04:01:00,60.4,59.5,29.82,NW,304,2.0,3.0,97,0.00,,OVC032,0.00,VWS V14.01,2013-05-10 09:01:00,
2013-05-10 04:06:00,60.4,59.5,29.82,WNW,298,1.0,6.0,97,0.00,,OVC032,0.00,VWS V14.01,2013-05-10 09:06:00,
2013-05-10 04:10:00,60.4,59.5,29.82,WNW,297,1.0,6.0,97,0.00,,CLR,0.00,VWS V14.01,2013-05-10 09:10:00,
2013-05-10 04:11:00,60.4,59.5,29.81,WNW,298,1.0,3.0,97,0.00,,OVC032,0.00,VWS V14.01,2013-05-10 09:11:00,
2013-05-10 04:16:00,60.4,59.5,29.81,WNW,298,0.0,3.0,97,0.00,,OVC032,0.00,VWS V14.01,2013-05-10 09:16:00,
2013-05-10 04:20:00,60.4,59.5,29.81,WNW,298,0.0,3.0,97,0.00,,CLR,0.00,VWS V14.01,2013-05-10 09:20:00,
2013-05-10 04:21:00,60.4,59.5,29.81,WNW,298,0.0,1.0,97,0.00,,BKN020,0.00,VWS V14.01,2013-05-10 09:21:00,
2013-05-10 04:27:00,60.3,59.5,29.81,WNW,298,1.0,2.0,97,0.00,,BKN020,0.00,VWS V14.01,2013-05-10 09:27:00,
2013-05-10 04:30:00,60.3,59.2,29.81,WNW,296,2.0,2.0,96,0.00,,CLR,0.00,VWS V14.01,2013-05-10 09:30:00,
2013-05-10 04:32:00,60.4,59.3,29.81,NW,323,2.0,3.0,96,0.00,,BKN020,0.00,VWS V14.01,2013-05-10 09:32:00,
2013-05-10 04:37:00,60.4,59.3,29.81,WNW,298,0.0,3.0,96,0.00,,BKN020,0.00,VWS V14.01,2013-05-10 09:37:00,
2013-05-10 04:40:00,60.4,59.3,29.81,WNW,298,1.0,3.0,96,0.00,,CLR,0.00,VWS V14.01,2013-05-10 09:40:00,
2013-05-10 04:42:00,60.4,59.3,29.81,WNW,298,0.0,1.0,96,0.00,,OVC016,0.00,VWS V14.01,2013-05-10 09:42:00,
2013-05-10 04:47:00,60.4,59.3,29.81,WNW,298,0.0,1.0,96,0.00,,OVC016,0.00,VWS V14.01,2013-05-10 09:47:00,
2013-05-10 04:50:00,60.3,59.2,29.81,WNW,298,0.0,1.0,96,0.00,,CLR,0.00,VWS V14.01,2013-05-10 09:50:00,
2013-05-10 04:52:00,60.3,59.2,29.82,WNW,298,0.0,2.0,96,0.00,,OVC016,0.00,VWS V14.01,2013-05-10 09:52:00,
2013-05-10 04:57:00,60.3,59.2,29.81,SW,233,1.0,2.0,96,0.00,,OVC016,0.00,VWS V14.01,2013-05-10 09:57:00,
2013-05-10 05:00:00,60.2,59.1,29.82,WSW,240,0.0,2.0,96,0.00,,CLR,0.00,VWS V14.01,2013-05-10 10:00:00,
2013-05-10 05:02:00,60.1,59.0,29.81,WSW,240,0.0,1.0,96,0.00,,OVC016,0.00,VWS V14.01,2013-05-10 10:02:00,
2013-05-10 05:07:00,60.1,59.0,29.82,WNW,287,0.0,2.0,96,0.00,,OVC016,0.00,VWS V14.01,2013-05-10 10:07:00,
2013-05-10 05:10:00,60.1,59.0,29.82,WNW,287,1.0,2.0,96,0.00,,CLR,0.00,VWS V14.01,2013-05-10 10:10:00,
2013-05-10 05:12:00,60.0,58.9,29.82,WNW,287,0.0,1.0,96,0.00,,OVC016,0.00,VWS V14.01,2013-05-10 10:12:00,
2013-05-10 05:17:00,60.0,58.9,29.82,WNW,287,0.0,1.0,96,0.00,,OVC016,0.00,VWS V14.01,2013-05-10 10:17:00,
2013-05-10 05:20:00,60.0,59.2,29.82,WNW,285,0.0,1.0,97,0.00,,CLR,0.00,VWS V14.01,2013-05-10 10:20:00,
2013-05-10 05:22:00,59.9,59.0,29.82,NNW,327,2.0,3.0,97,0.00,,OVC016,0.00,VWS V14.01,2013-05-10 10:22:00,
2013-05-10 05:27:00,59.9,59.0,29.82,NW,311,0.0,3.0,97,0.00,,OVC016,0.00,VWS V14.01,2013-05-10 10:27:00,
2013-05-10 05:30:00,59.9,59.0,29.82,NW,310,0.0,3.0,97,0.00,,CLR,0.00,VWS V14.01,2013-05-10 10:30:00,
2013-05-10 05:32:00,59.9,59.0,29.82,NW,305,2.0,2.0,97,0.00,,OVC016,0.00,VWS V14.01,2013-05-10 10:32:00,
2013-05-10 05:37:00,59.8,58.7,29.83,NW,305,1.0,2.0,96,0.00,,OVC016,0.00,VWS V14.01,2013-05-10 10:37:00,
2013-05-10 05:40:00,59.8,58.7,29.83,NW,305,2.0,2.0,96,0.00,,CLR,0.00,VWS V14.01,2013-05-10 10:40:00,
2013-05-10 05:43:00,59.7,58.6,29.83,WNW,294,2.0,2.0,96,0.00,,,0.00,VWS V14.01,2013-05-10 10:43:00,
2013-05-10 05:48:00,59.7,58.6,29.83,West,260,2.0,2.0,96,0.00,,,0.00,VWS V14.01,2013-05-10 10:48:00,
2013-05-10 05:50:00,59.7,58.6,29.83,West,260,1.0,2.0,96,0.00,,CLR,0.00,VWS V14.01,2013-05-10 10:50:00,
2013-05-10 05:53:00,59.6,58.5,29.83,NW,306,1.0,2.0,96,0.00,,,0.00,VWS V14.01,2013-05-10 10:53:00,
2013-05-10 05:58:00,59.5,58.1,29.83,NW,305,0.0,2.0,95,0.00,,,0.00,VWS V14.01,2013-05-10 10:58:00,
2013-05-10 06:00:00,59.6,58.2,29.83,NW,309,1.0,2.0,95,0.00,,CLR,0.00,VWS V14.01,2013-05-10 11:00:00,
2013-05-10 06:03:00,59.5,58.1,29.83,WNW,293,1.0,3.0,95,0.00,,,0.00,VWS V14.01,2013-05-10 11:03:00,
2013-05-10 06:08:00,59.5,58.1,29.83,NW,310,0.0,3.0,95,0.00,,,0.00,VWS V14.01,2013-05-10 11:08:00,
2013-05-10 06:10:00,59.5,58.1,29.83,NW,310,0.0,3.0,95,0.00,,CLR,0.00,VWS V14.01,2013-05-10 11:10:00,
2013-05-10 06:13:00,59.4,58.0,29.84,NW,314,0.0,3.0,95,0.00,,,0.00,VWS V14.01,2013-05-10 11:13:00,
2013-05-10 06:18:00,59.4,58.0,29.84,NNW,336,0.0,4.0,95,0.00,,,0.00,VWS V14.01,2013-05-10 11:18:00,
2013-05-10 06:20:00,59.4,58.0,29.84,NNW,329,1.0,4.0,95,0.00,,CLR,0.00,VWS V14.01,2013-05-10 11:20:00,
2013-05-10 06:23:00,59.4,58.0,29.84,NW,313,0.0,2.0,95,0.00,,,0.00,VWS V14.01,2013-05-10 11:23:00,
2013-05-10 06:28:00,59.3,57.9,29.84,NW,304,1.0,2.0,95,0.00,,,0.00,VWS V14.01,2013-05-10 11:28:00,
2013-05-10 06:30:00,59.3,57.9,29.84,NW,304,0.0,2.0,95,0.00,,CLR,0.00,VWS V14.01,2013-05-10 11:30:00,
2013-05-10 06:33:00,59.4,58.0,29.85,NW,305,1.0,2.0,95,0.00,,,0.00,VWS V14.01,2013-05-10 11:33:00,
2013-05-10 06:38:00,59.3,57.9,29.85,NW,305,0.0,2.0,95,0.00,,,0.00,VWS V14.01,2013-05-10 11:38:00,
2013-05-10 06:40:00,59.3,57.9,29.85,NW,305,0.0,2.0,95,0.00,,CLR,0.00,VWS V14.01,2013-05-10 11:40:00,
2013-05-10 06:43:00,59.3,57.9,29.85,WNW,290,0.0,0.0,95,0.00,,,0.00,VWS V14.01,2013-05-10 11:43:00,
2013-05-10 06:48:00,59.2,57.8,29.85,NW,306,2.0,2.0,95,0.00,,,0.00,VWS V14.01,2013-05-10 11:48:00,
2013-05-10 06:50:00,59.2,57.8,29.85,NW,316,2.0,3.0,95,0.00,,CLR,0.00,VWS V14.01,2013-05-10 11:50:00,
2013-05-10 06:53:00,59.1,58.0,29.85,NW,316,1.0,2.0,96,0.00,,,0.00,VWS V14.01,2013-05-10 11:53:00,
2013-05-10 06:59:00,59.0,57.9,29.85,NW,307,1.0,1.0,96,0.00,,,0.00,VWS V14.01,2013-05-10 11:59:00,
2013-05-10 07:00:00,59.0,57.9,29.85,NW,308,0.0,2.0,96,0.00,,CLR,0.00,VWS V14.01,2013-05-10 12:00:00,
2013-05-10 07:04:00,58.9,57.8,29.85,NW,306,1.0,3.0,96,0.00,,,0.00,VWS V14.01,2013-05-10 12:04:00,
2013-05-10 07:09:00,58.3,56.6,29.85,NW,316,5.0,5.0,94,0.00,,,0.00,VWS V14.01,2013-05-10 12:09:00,
2013-05-10 07:10:00,58.4,57.0,29.85,North,5,2.0,6.0,95,0.00,,CLR,0.00,VWS V14.01,2013-05-10 12:10:00,
2013-05-10 07:14:00,57.0,55.3,29.85,North,11,2.0,5.0,94,0.00,,,0.00,VWS V14.01,2013-05-10 12:14:00,
2013-05-10 07:19:00,55.5,53.8,29.86,NW,314,1.0,3.0,94,0.00,,,0.00,VWS V14.01,2013-05-10 12:19:00,
2013-05-10 07:20:00,55.8,54.1,29.86,NNE,33,3.0,5.0,94,0.00,,CLR,0.00,VWS V14.01,2013-05-10 12:20:00,
2013-05-10 07:24:00,54.7,53.0,29.86,NNW,340,3.0,3.0,94,0.00,,RA,0.00,VWS V14.01,2013-05-10 12:24:00,
2013-05-10 07:29:00,54.0,52.6,29.86,NNW,327,1.0,2.0,95,0.00,,RA,0.00,VWS V14.01,2013-05-10 12:29:00,
2013-05-10 07:30:00,54.1,52.7,29.86,NW,315,1.0,5.0,95,0.00,,CLR,0.00,VWS V14.01,2013-05-10 12:30:00,
2013-05-10 07:34:00,53.4,52.0,29.87,WNW,302,3.0,6.0,95,0.00,,RA,0.00,VWS V14.01,2013-05-10 12:34:00,
2013-05-10 07:39:00,53.1,52.0,29.87,NNE,25,2.0,2.0,96,0.00,,RA,0.00,VWS V14.01,2013-05-10 12:39:00,
2013-05-10 07:40:00,53.2,51.8,29.87,NE,44,2.0,6.0,95,0.00,,CLR,0.00,VWS V14.01,2013-05-10 12:40:00,
2013-05-10 07:44:00,52.9,51.8,29.87,NW,314,3.0,4.0,96,0.00,,,0.00,VWS V14.01,2013-05-10 12:44:00,
2013-05-10 07:49:00,52.5,51.4,29.88,WNW,301,1.0,2.0,96,0.00,,,0.00,VWS V14.01,2013-05-10 12:49:00,
2013-05-10 07:50:00,52.5,51.4,29.88,NW,312,1.0,4.0,96,0.00,,CLR,0.00,VWS V14.01,2013-05-10 12:50:00,
2013-05-10 07:54:00,52.1,51.0,29.88,NNE,28,1.0,5.0,96,0.00,,,0.00,VWS V14.01,2013-05-10 12:54:00,
2013-05-10 07:59:00,51.9,50.8,29.88,NW,324,1.0,1.0,96,0.00,,,0.00,VWS V14.01,2013-05-10 12:59:00,
2013-05-10 08:00:00,52.0,50.9,29.88,NNE,18,1.0,5.0,96,0.00,,CLR,0.00,VWS V14.01,2013-05-10 13:00:00,
2013-05-10 08:04:00,51.8,50.7,29.88,WNW,301,0.0,4.0,96,0.00,,OVC006,0.00,VWS V14.01,2013-05-10 13:04:00,
2013-05-10 08:09:00,51.8,51.0,29.88,North,358,1.0,3.0,97,0.00,,OVC006,0.00,VWS V14.01,2013-05-10 13:09:00,
2013-05-10 08:10:00,51.8,50.7,29.88,WNW,289,1.0,4.0,96,0.00,,CLR,0.00,VWS V14.01,2013-05-10 13:10:00,
2013-05-10 08:15:00,51.7,50.9,29.88,North,354,1.0,4.0,97,0.00,,OVC006,0.00,VWS V14.01,2013-05-10 13:15:00,
2013-05-10 08:20:00,51.6,50.8,29.89,NE,34,0.0,1.0,97,0.00,,,0.00,VWS V14.01,2013-05-10 13:20:00,
2013-05-10 08:25:00,51.4,50.6,29.89,NNE,13,1.0,2.0,97,0.00,,,0.00,VWS V14.01,2013-05-10 13:25:00,
2013-05-10 08:30:00,51.3,50.5,29.89,NE,39,0.0,1.0,97,0.00,,,0.00,VWS V14.01,2013-05-10 13:30:00,
2013-05-10 08:35:00,51.2,50.4,29.89,NNE,13,1.0,2.0,97,0.00,,,0.00,VWS V14.01,2013-05-10 13:35:00,
2013-05-10 08:40:00,51.3,50.5,29.90,North,11,0.0,2.0,97,0.00,,,0.00,VWS V14.01,2013-05-10 13:40:00,
2013-05-10 08:45:00,51.2,50.4,29.90,NNE,12,2.0,4.0,97,0.00,,,0.00,VWS V14.01,2013-05-10 13:45:00,
2013-05-10 08:50:00,51.2,50.4,29.90,NNW,328,1.0,3.0,97,0.00,,,0.00,VWS V14.01,2013-05-10 13:50:00,
2013-05-10 08:55:00,51.2,50.4,29.90,NNW,337,2.0,5.0,97,0.00,,,0.00,VWS V14.01,2013-05-10 13:55:00,
2013-05-10 09:00:00,51.3,50.5,29.89,NNW,342,2.0,2.0,97,0.00,,,0.00,VWS V14.01,2013-05-10 14:00:00,
2013-05-10 09:05:00,51.2,50.4,29.90,NW,315,0.0,4.0,97,0.01,,,0.01,VWS V14.01,2013-05-10 14:05:00,
2013-05-10 09:10:00,51.3,50.5,29.90,NNE,30,4.0,4.0,97,0.01,,,0.01,VWS V14.01,2013-05-10 14:10:00,
2013-05-10 09:15:00,51.2,50.4,29.90,NE,49,1.0,4.0,97,0.01,,,0.01,VWS V14.01,2013-05-10 14:15:00,
2013-05-10 09:20:00,51.3,50.5,29.90,NNE,15,0.0,2.0,97,0.01,,OVC006,0.01,VWS V14.01,2013-05-10 14:20:00,
2013-05-10 09:26:00,51.2,50.4,29.90,NNW,328,1.0,5.0,97,0.01,,OVC006,0.01,VWS V14.01,2013-05-10 14:26:00,
2013-05-10 09:30:00,51.0,50.2,29.89,NNE,25,1.0,5.0,97,0.01,,CLR,0.01,VWS V14.01,2013-05-10 14:30:00,
2013-05-10 09:31:00,51.0,50.2,29.89,North,353,2.0,2.0,97,0.01,,OVC006,0.01,VWS V14.01,2013-05-10 14:31:00,
2013-05-10 09:36:00,50.9,50.1,29.90,NNE,16,3.0,5.0,97,0.01,,OVC006,0.01,VWS V14.01,2013-05-10 14:36:00,
2013-05-10 09:40:00,51.0,50.2,29.90,NNW,347,0.0,5.0,97,0.01,,CLR,0.01,VWS V14.01,2013-05-10 14:40:00,
2013-05-10 09:41:00,51.1,50.3,29.90,NNW,340,0.0,4.0,97,0.01,,OVC006,0.01,VWS V14.01,2013-05-10 14:41:00,
2013-05-10 09:46:00,51.0,50.2,29.91,NNW,333,1.0,4.0,97,0.01,,OVC006,0.01,VWS V14.01,2013-05-10 14:46:00,
2013-05-10 09:50:00,50.9,49.8,29.91,West,264,1.0,4.0,96,0.01,,CLR,0.01,VWS V14.01,2013-05-10 14:50:00,
2013-05-10 09:51:00,50.6,49.5,29.91,NW,311,4.0,5.0,96,0.01,,OVC006,0.01,VWS V14.01,2013-05-10 14:51:00,
2013-05-10 09:56:00,50.4,49.3,29.91,NNE,25,3.0,5.0,96,0.01,,OVC006,0.01,VWS V14.01,2013-05-10 14:56:00,
2013-05-10 10:00:00,50.4,49.3,29.91,North,354,2.0,5.0,96,0.01,,CLR,0.01,VWS V14.01,2013-05-10 15:00:00,
2013-05-10 10:01:00,50.3,49.2,29.91,NNE,27,0.0,2.0,96,0.01,,OVC008,0.01,VWS V14.01,2013-05-10 15:01:00,
2013-05-10 10:06:00,50.5,49.7,29.92,North,356,1.0,2.0,97,0.01,,OVC008,0.01,VWS V14.01,2013-05-10 15:06:00,
2013-05-10 10:10:00,50.5,49.4,29.92,WNW,290,1.0,2.0,96,0.01,,CLR,0.01,VWS V14.01,2013-05-10 15:10:00,
2013-05-10 10:11:00,50.7,49.9,29.92,WNW,290,0.0,1.0,97,0.00,,OVC008,0.01,VWS V14.01,2013-05-10 15:11:00,
2013-05-10 10:16:00,50.6,49.5,29.91,WNW,301,0.0,4.0,96,0.00,,OVC008,0.01,VWS V14.01,2013-05-10 15:16:00,
2013-05-10 10:20:00,50.5,49.4,29.91,NW,314,1.0,4.0,96,0.00,,CLR,0.01,VWS V14.01,2013-05-10 15:20:00,
2013-05-10 10:21:00,50.4,49.3,29.92,NW,316,1.0,4.0,96,0.00,,OVC010,0.01,VWS V14.01,2013-05-10 15:21:00,
2013-05-10 10:26:00,50.3,49.2,29.91,NNE,15,0.0,4.0,96,0.00,,OVC010,0.01,VWS V14.01,2013-05-10 15:26:00,
2013-05-10 10:30:00,50.3,49.2,29.91,NNE,29,1.0,4.0,96,0.00,,CLR,0.01,VWS V14.01,2013-05-10 15:30:00,
2013-05-10 10:31:00,50.3,49.2,29.91,WNW,300,1.0,4.0,96,0.00,,OVC010,0.01,VWS V14.01,2013-05-10 15:31:00,
2013-05-10 10:36:00,50.3,49.2,29.92,NW,316,1.0,4.0,96,0.00,,OVC010,0.01,VWS V14.01,2013-05-10 15:36:00,
2013-05-10 10:40:00,50.3,49.2,29.92,NNE,23,2.0,4.0,96,0.00,,CLR,0.01,VWS V14.01,2013-05-10 15:40:00,
2013-05-10 10:42:00,50.3,49.2,29.92,WNW,297,4.0,4.0,96,0.00,,OVC010,0.01,VWS V14.01,2013-05-10 15:42:00,
2013-05-10 10:47:00,50.3,49.2,29.92,NNE,14,2.0,4.0,96,0.00,,OVC010,0.01,VWS V14.01,2013-05-10 15:47:00,
2013-05-10 10:50:00,50.4,49.3,29.92,NNE,17,2.0,4.0,96,0.00,,CLR,0.01,VWS V14.01,2013-05-10 15:50:00,
2013-05-10 10:52:00,50.6,49.5,29.92,NNE,18,0.0,2.0,96,0.00,,OVC010,0.01,VWS V14.01,2013-05-10 15:52:00,
2013-05-10 10:57:00,51.2,50.1,29.92,NNE,30,2.0,3.0,96,0.00,,OVC010,0.01,VWS V14.01,2013-05-10 15:57:00,
2013-05-10 11:00:00,51.3,50.2,29.92,NE,50,1.0,3.0,96,0.00,,CLR,0.01,VWS V14.01,2013-05-10 16:00:00,
2013-05-10 11:02:00,51.3,49.9,29.92,NNE,31,1.0,6.0,95,0.00,,OVC010,0.01,VWS V14.01,2013-05-10 16:02:00,
2013-05-10 11:07:00,51.6,49.9,29.92,NW,320,2.0,6.0,94,0.00,,OVC010,0.01,VWS V14.01,2013-05-10 16:07:00,
2013-05-10 11:10:00,51.6,49.9,29.92,NNW,327,1.0,6.0,94,0.00,,CLR,0.01,VWS V14.01,2013-05-10 16:10:00,
2013-05-10 11:12:00,51.8,49.8,29.92,North,11,1.0,4.0,93,0.00,,OVC010,0.01,VWS V14.01,2013-05-10 16:12:00,
2013-05-10 11:17:00,52.0,49.5,29.92,NW,316,2.0,5.0,91,0.00,,OVC010,0.01,VWS V14.01,2013-05-10 16:17:00,
2013-05-10 11:20:00,52.0,49.5,29.92,NNW,334,0.0,5.0,91,0.00,,CLR,0.01,VWS V14.01,2013-05-10 16:20:00,
2013-05-10 11:22:00,52.1,49.6,29.93,NE,34,2.0,4.0,91,0.00,,OVC012,0.01,VWS V14.01,2013-05-10 16:22:00,
2013-05-10 11:27:00,52.2,49.7,29.93,NE,43,0.0,4.0,91,0.00,,OVC012,0.01,VWS V14.01,2013-05-10 16:27:00,
2013-05-10 11:30:00,52.2,49.4,29.93,NNE,30,2.0,4.0,90,0.00,,CLR,0.01,VWS V14.01,2013-05-10 16:30:00,
2013-05-10 11:32:00,52.1,49.6,29.93,NW,321,3.0,6.0,91,0.00,,OVC012,0.01,VWS V14.01,2013-05-10 16:32:00,
2013-05-10 11:37:00,52.2,49.7,29.93,WNW,297,3.0,6.0,91,0.00,,OVC012,0.01,VWS V14.01,2013-05-10 16:37:00,
2013-05-10 11:40:00,52.2,49.7,29.93,NNE,30,1.0,6.0,91,0.00,,CLR,0.01,VWS V14.01,2013-05-10 16:40:00,
2013-05-10 11:42:00,52.6,50.0,29.93,WNW,284,1.0,3.0,91,0.00,,OVC012,0.01,VWS V14.01,2013-05-10 16:42:00,
2013-05-10 11:47:00,52.5,49.4,29.93,WNW,295,1.0,5.0,89,0.00,,OVC012,0.01,VWS V14.01,2013-05-10 16:47:00,
2013-05-10 11:50:00,52.5,49.4,29.93,NNW,347,0.0,5.0,89,0.00,,CLR,0.01,VWS V14.01,2013-05-10 16:50:00,
2013-05-10 11:52:00,52.8,50.0,29.93,WNW,288,1.0,3.0,90,0.00,,OVC012,0.01,VWS V14.01,2013-05-10 16:52:00,
2013-05-10 11:57:00,53.3,50.2,29.94,NNE,17,4.0,5.0,89,0.00,,OVC012,0.01,VWS V14.01,2013-05-10 16:57:00,
2013-05-10 12:00:00,53.3,50.2,29.94,NE,49,1.0,5.0,89,0.00,,CLR,0.01,VWS V14.01,2013-05-10 17:00:00,
2013-05-10 12:03:00,53.2,49.7,29.94,NE,36,1.0,4.0,88,0.00,,OVC014,0.01,VWS V14.01,2013-05-10 17:03:00,
2013-05-10 12:08:00,52.8,49.3,29.94,NW,309,3.0,5.0,88,0.00,,OVC014,0.01,VWS V14.01,2013-05-10 17:08:00,
2013-05-10 12:10:00,52.7,49.2,29.94,WNW,288,2.0,5.0,88,0.00,,CLR,0.01,VWS V14.01,2013-05-10 17:10:00,
2013-05-10 12:13:00,52.6,49.5,29.93,North,3,0.0,3.0,89,0.00,,OVC014,0.01,VWS V14.01,2013-05-10 17:13:00,
2013-05-10 12:18:00,52.8,49.7,29.94,NW,307,2.0,4.0,89,0.00,,OVC014,0.01,VWS V14.01,2013-05-10 17:18:00,
2013-05-10 12:20:00,52.8,49.7,29.94,NW,307,1.0,4.0,89,0.00,,CLR,0.01,VWS V14.01,2013-05-10 17:20:00,
2013-05-10 12:23:00,52.9,49.8,29.94,NW,309,4.0,4.0,89,0.00,,OVC012,0.01,VWS V14.01,2013-05-10 17:23:00,
2013-05-10 12:28:00,52.8,49.7,29.94,WNW,298,1.0,5.0,89,0.00,,OVC012,0.01,VWS V14.01,2013-05-10 17:28:00,
2013-05-10 12:30:00,52.8,49.7,29.94,NE,53,2.0,5.0,89,0.00,,CLR,0.01,VWS V14.01,2013-05-10 17:30:00,
2013-05-10 12:33:00,52.9,49.8,29.94,NE,49,0.0,4.0,89,0.00,,OVC012,0.01,VWS V14.01,2013-05-10 17:33:00,
2013-05-10 12:38:00,53.1,49.7,29.94,NE,41,1.0,4.0,88,0.00,,OVC012,0.01,VWS V14.01,2013-05-10 17:38:00,
2013-05-10 12:40:00,53.1,49.7,29.94,NE,41,0.0,4.0,88,0.00,,CLR,0.01,VWS V14.01,2013-05-10 17:40:00,
2013-05-10 12:43:00,53.0,49.8,29.94,North,7,1.0,4.0,89,0.00,,OVC014,0.01,VWS V14.01,2013-05-10 17:43:00,
2013-05-10 12:48:00,53.2,50.0,29.94,ENE,62,0.0,4.0,89,0.00,,OVC014,0.01,VWS V14.01,2013-05-10 17:48:00,
2013-05-10 12:50:00,53.2,50.0,29.94,ENE,62,0.0,4.0,89,0.00,,CLR,0.01,VWS V14.01,2013-05-10 17:50:00,
2013-05-10 12:53:00,53.5,50.0,29.93,NE,54,0.0,4.0,88,0.00,,OVC014,0.01,VWS V14.01,2013-05-10 17:53:00,
2013-05-10 12:58:00,53.6,49.8,29.94,NW,307,1.0,4.0,87,0.00,,OVC014,0.01,VWS V14.01,2013-05-10 17:58:00,
2013-05-10 13:00:00,53.6,49.8,29.94,NW,307,1.0,4.0,87,0.00,,CLR,0.01,VWS V14.01,2013-05-10 18:00:00,
2013-05-10 13:03:00,53.6,49.8,29.94,SW,226,1.0,4.0,87,0.00,,OVC012,0.01,VWS V14.01,2013-05-10 18:03:00,
2013-05-10 13:08:00,53.3,49.5,29.94,NNW,338,1.0,1.0,87,0.00,,OVC012,0.01,VWS V14.01,2013-05-10 18:08:00,
2013-05-10 13:10:00,53.2,49.4,29.94,NNW,339,1.0,4.0,87,0.00,,CLR,0.01,VWS V14.01,2013-05-10 18:10:00,
2013-05-10 13:14:00,53.0,49.5,29.94,NNW,345,0.0,2.0,88,0.00,,OVC012,0.01,VWS V14.01,2013-05-10 18:14:00,
2013-05-10 13:19:00,53.0,49.5,29.94,NW,319,1.0,1.0,88,0.00,,OVC012,0.01,VWS V14.01,2013-05-10 18:19:00,
2013-05-10 13:20:00,53.0,49.5,29.95,NW,319,0.0,2.0,88,0.00,,CLR,0.01,VWS V14.01,2013-05-10 18:20:00,
2013-05-10 13:24:00,53.0,49.5,29.94,NW,306,0.0,4.0,88,0.00,,OVC018,0.01,VWS V14.01,2013-05-10 18:24:00,
2013-05-10 13:29:00,52.9,49.5,29.94,NNE,22,0.0,2.0,88,0.00,,OVC018,0.01,VWS V14.01,2013-05-10 18:29:00,
2013-05-10 13:30:00,52.9,49.8,29.94,NNE,21,2.0,4.0,89,0.00,,CLR,0.01,VWS V14.01,2013-05-10 18:30:00,
2013-05-10 13:34:00,52.8,49.3,29.94,WNW,290,0.0,5.0,88,0.00,,OVC018,0.01,VWS V14.01,2013-05-10 18:34:00,
2013-05-10 13:39:00,52.9,49.8,29.94,North,349,0.0,2.0,89,0.00,,OVC018,0.01,VWS V14.01,2013-05-10 18:39:00,
2013-05-10 13:40:00,52.8,49.7,29.94,NNW,347,1.0,5.0,89,0.00,,CLR,0.01,VWS V14.01,2013-05-10 18:40:00,
2013-05-10 13:44:00,53.0,49.5,29.94,NNE,19,2.0,4.0,88,0.00,,OVC012,0.01,VWS V14.01,2013-05-10 18:44:00,
2013-05-10 13:49:00,53.4,49.9,29.94,NNE,30,3.0,4.0,88,0.00,,OVC012,0.01,VWS V14.01,2013-05-10 18:49:00,
2013-05-10 13:50:00,53.3,49.8,29.94,NE,41,1.0,4.0,88,0.00,,CLR,0.01,VWS V14.01,2013-05-10 18:50:00,
2013-05-10 13:54:00,53.4,49.9,29.94,WNW,302,2.0,4.0,88,0.00,,OVC012,0.01,VWS V14.01,2013-05-10 18:54:00,
2013-05-10 13:59:00,53.4,49.6,29.94,NW,316,3.0,3.0,87,0.00,,OVC012,0.01,VWS V14.01,2013-05-10 18:59:00,
2013-05-10 14:00:00,53.4,49.9,29.94,SSW,205,1.0,4.0,88,0.00,,CLR,0.01,VWS V14.01,2013-05-10 19:00:00,
2013-05-10 14:04:00,53.2,49.7,29.94,NW,304,0.0,3.0,88,0.00,,OVC012,0.01,VWS V14.01,2013-05-10 19:04:00,
2013-05-10 14:09:00,53.1,49.7,29.94,NE,35,1.0,4.0,88,0.00,,OVC012,0.01,VWS V14.01,2013-05-10 19:09:00,
2013-05-10 14:10:00,53.1,49.7,29.94,North,5,4.0,4.0,88,0.00,,CLR,0.01,VWS V14.01,2013-05-10 19:10:00,
2013-05-10 14:14:00,53.1,49.7,29.94,North,1,2.0,4.0,88,0.00,,OVC012,0.01,VWS V14.01,2013-05-10 19:14:00,
2013-05-10 14:19:00,53.2,49.7,29.94,NNE,13,2.0,3.0,88,0.00,,OVC012,0.01,VWS V14.01,2013-05-10 19:19:00,
2013-05-10 14:20:00,53.2,49.7,29.94,NNE,12,0.0,4.0,88,0.00,,CLR,0.01,VWS V14.01,2013-05-10 19:20:00,
2013-05-10 14:25:00,53.0,49.5,29.94,North,355,0.0,3.0,88,0.00,,OVC012,0.01,VWS V14.01,2013-05-10 19:25:00,
2013-05-10 14:30:00,52.9,49.5,29.94,North,358,0.0,2.0,88,0.00,,OVC012,0.01,VWS V14.01,2013-05-10 19:30:00,
2013-05-10 14:35:00,53.0,49.8,29.94,NNE,29,0.0,3.0,89,0.00,,OVC012,0.01,VWS V14.01,2013-05-10 19:35:00,
2013-05-10 14:40:00,52.9,49.5,29.95,NNE,21,1.0,3.0,88,0.00,,OVC014,0.01,VWS V14.01,2013-05-10 19:40:00,
2013-05-10 14:45:00,53.0,49.8,29.94,NNE,23,0.0,3.0,89,0.00,,OVC014,0.01,VWS V14.01,2013-05-10 19:45:00,
2013-05-10 14:50:00,53.0,49.5,29.94,NNW,327,0.0,1.0,88,0.00,,OVC014,0.01,VWS V14.01,2013-05-10 19:50:00,
2013-05-10 14:55:00,53.0,49.8,29.95,NE,34,0.0,3.0,89,0.00,,OVC014,0.01,VWS V14.01,2013-05-10 19:55:00,
2013-05-10 15:00:00,53.1,50.0,29.94,NE,41,0.0,1.0,89,0.00,,OVC012,0.01,VWS V14.01,2013-05-10 20:00:00,
2013-05-10 15:05:00,52.9,49.8,29.94,WNW,300,1.0,4.0,89,0.00,,OVC012,0.01,VWS V14.01,2013-05-10 20:05:00,
2013-05-10 15:10:00,52.8,49.7,29.94,North,11,0.0,3.0,89,0.00,,OVC012,0.01,VWS V14.01,2013-05-10 20:10:00,
2013-05-10 15:15:00,52.7,49.5,29.95,NNW,342,1.0,3.0,89,0.00,,OVC012,0.01,VWS V14.01,2013-05-10 20:15:00,
2013-05-10 15:20:00,52.7,49.5,29.95,WNW,297,1.0,3.0,89,0.00,,CLR,0.01,VWS V14.01,2013-05-10 20:20:00,
2013-05-10 15:21:00,52.7,49.5,29.95,West,281,1.0,2.0,89,0.00,,OVC012,0.01,VWS V14.01,2013-05-10 20:21:00,
2013-05-10 15:26:00,52.5,49.4,29.95,WNW,299,0.0,3.0,89,0.00,,OVC012,0.01,VWS V14.01,2013-05-10 20:26:00,
2013-05-10 15:30:00,52.5,49.7,29.95,WNW,300,0.0,3.0,90,0.00,,CLR,0.01,VWS V14.01,2013-05-10 20:30:00,
2013-05-10 15:31:00,52.6,49.8,29.95,WNW,300,0.0,1.0,90,0.00,,OVC012,0.01,VWS V14.01,2013-05-10 20:31:00,
2013-05-10 15:36:00,52.6,49.8,29.95,NNE,25,2.0,3.0,90,0.00,,OVC012,0.01,VWS V14.01,2013-05-10 20:36:00,
2013-05-10 15:40:00,52.5,49.7,29.95,NNE,30,1.0,3.0,90,0.00,,CLR,0.01,VWS V14.01,2013-05-10 20:40:00,
2013-05-10 15:41:00,52.4,49.6,29.95,NE,37,1.0,3.0,90,0.00,,OVC012,0.01,VWS V14.01,2013-05-10 20:41:00,
2013-05-10 15:46:00,52.3,49.5,29.95,NW,306,1.0,3.0,90,0.00,,OVC012,0.01,VWS V14.01,2013-05-10 20:46:00,
2013-05-10 15:50:00,52.3,49.5,29.95,NW,309,0.0,3.0,90,0.00,,CLR,0.01,VWS V14.01,2013-05-10 20:50:00,
2013-05-10 15:51:00,52.3,49.5,29.95,NW,311,0.0,1.0,90,0.00,,OVC012,0.01,VWS V14.01,2013-05-10 20:51:00,
2013-05-10 15:56:00,52.3,49.5,29.95,NNW,332,0.0,1.0,90,0.00,,OVC012,0.01,VWS V14.01,2013-05-10 20:56:00,
2013-05-10 16:00:00,52.3,49.5,29.95,WNW,290,0.0,1.0,90,0.00,,CLR,0.01,VWS V14.01,2013-05-10 21:00:00,
2013-05-10 16:01:00,52.4,49.6,29.95,NNE,25,0.0,2.0,90,0.00,,OVC016,0.01,VWS V14.01,2013-05-10 21:01:00,
2013-05-10 16:06:00,52.3,49.5,29.95,NW,316,0.0,3.0,90,0.00,,OVC016,0.01,VWS V14.01,2013-05-10 21:06:00,
2013-05-10 16:10:00,52.2,49.4,29.96,NNW,333,0.0,3.0,90,0.00,,CLR,0.01,VWS V14.01,2013-05-10 21:10:00,
2013-05-10 16:11:00,52.1,49.3,29.95,NNE,18,2.0,4.0,90,0.00,,OVC016,0.01,VWS V14.01,2013-05-10 21:11:00,
2013-05-10 16:16:00,52.0,49.2,29.95,WNW,303,2.0,4.0,90,0.00,,OVC016,0.01,VWS V14.01,2013-05-10 21:16:00,
2013-05-10 16:20:00,51.8,49.0,29.96,NNW,338,1.0,4.0,90,0.00,,CLR,0.01,VWS V14.01,2013-05-10 21:20:00,
2013-05-10 16:21:00,51.8,49.3,29.96,North,356,0.0,2.0,91,0.00,,OVC014,0.01,VWS V14.01,2013-05-10 21:21:00,
2013-05-10 16:26:00,51.8,49.3,29.96,NW,319,0.0,2.0,91,0.00,,OVC014,0.01,VWS V14.01,2013-05-10 21:26:00,
2013-05-10 16:30:00,51.7,49.2,29.96,WNW,302,1.0,5.0,91,0.00,,CLR,0.01,VWS V14.01,2013-05-10 21:30:00,
2013-05-10 16:32:00,51.7,49.2,29.96,NNE,27,1.0,3.0,91,0.00,,OVC014,0.01,VWS V14.01,2013-05-10 21:32:00,
2013-05-10 16:37:00,51.6,49.1,29.95,WNW,293,0.0,4.0,91,0.00,,OVC014,0.01,VWS V14.01,2013-05-10 21:37:00,
2013-05-10 16:40:00,51.7,49.2,29.95,North,356,1.0,4.0,91,0.00,,CLR,0.01,VWS V14.01,2013-05-10 21:40:00,
2013-05-10 16:42:00,51.8,49.3,29.95,North,356,1.0,2.0,91,0.00,,OVC014,0.01,VWS V14.01,2013-05-10 21:42:00,
2013-05-10 16:47:00,51.9,49.4,29.96,NNW,345,0.0,2.0,91,0.00,,OVC014,0.01,VWS V14.01,2013-05-10 21:47:00,
2013-05-10 16:50:00,51.9,49.4,29.96,NNE,18,0.0,2.0,91,0.00,,CLR,0.01,VWS V14.01,2013-05-10 21:50:00,
2013-05-10 16:52:00,52.0,49.5,29.96,NW,305,1.0,3.0,91,0.00,,OVC014,0.01,VWS V14.01,2013-05-10 21:52:00,
2013-05-10 16:57:00,52.0,49.5,29.96,NW,311,1.0,3.0,91,0.00,,OVC014,0.01,VWS V14.01,2013-05-10 21:57:00,
2013-05-10 16:58:00,52.0,49.5,29.96,North,356,3.0,3.0,91,0.00,,OVC014,0.01,VWS V14.01,2013-05-10 21:58:00,
2013-05-10 17:00:00,51.9,49.4,29.96,NW,319,2.0,3.0,91,0.00,,CLR,0.01,VWS V14.01,2013-05-10 22:00:00,
2013-05-10 17:03:00,51.9,49.4,29.96,North,6,2.0,5.0,91,0.00,,OVC014,0.01,VWS V14.01,2013-05-10 22:03:00,
2013-05-10 17:05:00,51.9,49.4,29.96,NNE,25,0.0,5.0,91,0.00,,OVC014,0.01,VWS V14.01,2013-05-10 22:05:00,
2013-05-10 17:10:00,51.9,49.4,29.96,NW,316,2.0,3.0,91,0.00,,OVC014,0.01,VWS V14.01,2013-05-10 22:10:00,
2013-05-10 17:15:00,51.8,49.0,29.96,NW,323,0.0,3.0,90,0.00,,OVC014,0.01,VWS V14.01,2013-05-10 22:15:00,
2013-05-10 17:20:00,51.7,48.9,29.96,North,357,1.0,1.0,90,0.00,,OVC014,0.01,VWS V14.01,2013-05-10 22:20:00,
2013-05-10 17:25:00,51.6,49.1,29.96,NNW,347,1.0,3.0,91,0.00,,OVC014,0.01,VWS V14.01,2013-05-10 22:25:00,
2013-05-10 17:30:00,51.6,49.1,29.96,NNE,16,2.0,3.0,91,0.00,,OVC014,0.01,VWS V14.01,2013-05-10 22:30:00,
2013-05-10 17:36:00,51.5,49.3,29.96,NNE,18,0.0,4.0,92,0.00,,OVC014,0.01,VWS V14.01,2013-05-10 22:36:00,
2013-05-10 17:40:00,51.5,49.3,29.96,NW,315,1.0,4.0,92,0.00,,CLR,0.01,VWS V14.01,2013-05-10 22:40:00,
2013-05-10 17:41:00,51.4,49.2,29.96,NNW,342,2.0,3.0,92,0.00,,OVC014,0.01,VWS V14.01,2013-05-10 22:41:00,
2013-05-10 17:46:00,51.4,48.9,29.97,WNW,298,1.0,3.0,91,0.00,,OVC014,0.01,VWS V14.01,2013-05-10 22:46:00,
2013-05-10 17:50:00,51.4,48.9,29.97,NW,311,1.0,3.0,91,0.00,,CLR,0.01,VWS V14.01,2013-05-10 22:50:00,
2013-05-10 17:51:00,51.3,48.8,29.97,WSW,257,0.0,3.0,91,0.00,,OVC014,0.01,VWS V14.01,2013-05-10 22:51:00,
2013-05-10 17:56:00,51.4,48.9,29.97,North,7,1.0,3.0,91,0.00,,OVC014,0.01,VWS V14.01,2013-05-10 22:56:00,
2013-05-10 18:00:00,51.4,48.9,29.97,North,355,1.0,3.0,91,0.00,,CLR,0.01,VWS V14.01,2013-05-10 23:00:00,
2013-05-10 18:01:00,51.5,49.0,29.97,NW,318,0.0,1.0,91,0.00,,OVC012,0.01,VWS V14.01,2013-05-10 23:01:00,
2013-05-10 18:06:00,51.5,49.0,29.97,North,349,0.0,1.0,91,0.00,,OVC012,0.01,VWS V14.01,2013-05-10 23:06:00,
2013-05-10 18:10:00,51.6,49.1,29.97,WNW,302,4.0,4.0,91,0.00,,CLR,0.01,VWS V14.01,2013-05-10 23:10:00,
2013-05-10 18:11:00,51.5,49.0,29.97,NW,312,0.0,4.0,91,0.00,,OVC012,0.01,VWS V14.01,2013-05-10 23:11:00,
2013-05-10 18:16:00,51.6,49.1,29.97,NW,308,0.0,4.0,91,0.00,,OVC012,0.01,VWS V14.01,2013-05-10 23:16:00,
2013-05-10 18:20:00,51.6,48.8,29.97,NW,311,0.0,4.0,90,0.00,,CLR,0.01,VWS V14.01,2013-05-10 23:20:00,
2013-05-10 18:21:00,51.7,48.9,29.97,WNW,300,0.0,0.0,90,0.00,,OVC016,0.01,VWS V14.01,2013-05-10 23:21:00,
2013-05-10 18:26:00,51.7,48.9,29.97,WSW,242,1.0,2.0,90,0.00,,OVC016,0.01,VWS V14.01,2013-05-10 23:26:00,
2013-05-10 18:30:00,51.7,48.9,29.97,NNW,336,0.0,3.0,90,0.00,,CLR,0.01,VWS V14.01,2013-05-10 23:30:00,
2013-05-10 18:31:00,51.7,48.9,29.97,NE,45,0.0,2.0,90,0.00,,OVC016,0.01,VWS V14.01,2013-05-10 23:31:00,
2013-05-10 18:36:00,51.8,49.0,29.97,NNW,330,0.0,2.0,90,0.00,,OVC016,0.01,VWS V14.01,2013-05-10 23:36:00,
2013-05-10 18:40:00,51.8,49.0,29.97,NNW,330,0.0,2.0,90,0.00,,CLR,0.01,VWS V14.01,2013-05-10 23:40:00,
2013-05-10 18:41:00,51.8,49.0,29.97,NNW,330,0.0,1.0,90,0.00,,OVC018,0.01,VWS V14.01,2013-05-10 23:41:00,
2013-05-10 18:46:00,51.8,49.0,29.98,NNE,22,0.0,1.0,90,0.00,,OVC018,0.01,VWS V14.01,2013-05-10 23:46:00,
2013-05-10 18:50:00,51.8,49.0,29.98,WNW,283,1.0,1.0,90,0.00,,CLR,0.01,VWS V14.01,2013-05-10 23:50:00,
2013-05-10 18:51:00,51.8,49.0,29.98,NNW,334,0.0,1.0,90,0.00,,OVC018,0.01,VWS V14.01,2013-05-10 23:51:00,
2013-05-10 18:57:00,51.8,49.0,29.98,NNW,332,0.0,1.0,90,0.00,,OVC018,0.01,VWS V14.01,2013-05-10 23:57:00,
2013-05-10 19:00:00,51.8,49.0,29.98,NNW,331,0.0,1.0,90,0.00,,CLR,0.01,VWS V14.01,2013-05-11 00:00:00,
2013-05-10 19:02:00,51.8,49.0,29.99,WNW,300,0.0,0.0,90,0.00,,OVC026,0.01,VWS V14.01,2013-05-11 00:02:00,
2013-05-10 19:07:00,51.9,49.1,29.99,WNW,300,0.0,0.0,90,0.00,,OVC026,0.01,VWS V14.01,2013-05-11 00:07:00,
2013-05-10 19:10:00,51.9,49.1,29.99,WNW,300,0.0,0.0,90,0.00,,CLR,0.01,VWS V14.01,2013-05-11 00:10:00,
2013-05-10 19:12:00,51.9,49.1,29.99,WNW,300,0.0,0.0,90,0.00,,OVC026,0.01,VWS V14.01,2013-05-11 00:12:00,
2013-05-10 19:17:00,51.8,49.0,29.99,WNW,288,1.0,1.0,90,0.00,,OVC026,0.01,VWS V14.01,2013-05-11 00:17:00,
2013-05-10 19:20:00,51.7,48.9,29.99,WNW,288,0.0,1.0,90,0.00,,CLR,0.01,VWS V14.01,2013-05-11 00:20:00,
2013-05-10 19:22:00,51.7,48.9,29.99,NNW,328,1.0,2.0,90,0.00,,OVC026,0.01,VWS V14.01,2013-05-11 00:22:00,
2013-05-10 19:27:00,51.6,48.8,29.98,WNW,293,0.0,2.0,90,0.00,,OVC026,0.01,VWS V14.01,2013-05-11 00:27:00,
2013-05-10 19:30:00,51.6,48.8,29.99,WNW,294,0.0,2.0,90,0.00,,CLR,0.01,VWS V14.01,2013-05-11 00:30:00,
2013-05-10 19:32:00,51.6,48.8,29.99,WNW,294,0.0,1.0,90,0.00,,OVC026,0.01,VWS V14.01,2013-05-11 00:32:00,
2013-05-10 19:37:00,51.6,48.8,29.99,WNW,294,0.0,1.0,90,0.00,,OVC026,0.01,VWS V14.01,2013-05-11 00:37:00,
2013-05-10 19:40:00,51.6,48.8,29.99,WNW,294,0.0,1.0,90,0.00,,CLR,0.01,VWS V14.01,2013-05-11 00:40:00,
2013-05-10 19:42:00,51.6,48.8,29.99,NNE,22,0.0,0.0,90,0.00,,OVC026,0.01,VWS V14.01,2013-05-11 00:42:00,
2013-05-10 19:47:00,51.6,48.8,29.99,NW,307,0.0,1.0,90,0.00,,OVC026,0.01,VWS V14.01,2013-05-11 00:47:00,
2013-05-10 19:50:00,51.6,48.8,29.99,NW,307,0.0,1.0,90,0.00,,CLR,0.01,VWS V14.01,2013-05-11 00:50:00,
2013-05-10 19:52:00,51.5,48.7,29.99,NW,307,0.0,0.0,90,0.00,,OVC026,0.01,VWS V14.01,2013-05-11 00:52:00,
2013-05-10 19:57:00,51.5,48.7,29.99,NW,305,0.0,2.0,90,0.00,,OVC026,0.01,VWS V14.01,2013-05-11 00:57:00,
2013-05-10 20:00:00,51.6,48.8,29.99,NW,305,0.0,2.0,90,0.00,,CLR,0.01,VWS V14.01,2013-05-11 01:00:00,
2013-05-10 20:02:00,51.6,48.8,29.99,NNE,15,0.0,1.0,90,0.00,,OVC024,0.01,VWS V14.01,2013-05-11 01:02:00,
2013-05-10 20:07:00,51.5,48.7,29.99,NNE,15,0.0,1.0,90,0.00,,OVC024,0.01,VWS V14.01,2013-05-11 01:07:00,
2013-05-10 20:10:00,51.5,48.7,29.99,NNE,14,0.0,1.0,90,0.00,,CLR,0.01,VWS V14.01,2013-05-11 01:10:00,
2013-05-10 20:13:00,51.5,48.7,29.99,NNW,336,0.0,0.0,90,0.00,,OVC024,0.01,VWS V14.01,2013-05-11 01:13:00,
2013-05-10 20:18:00,51.4,48.6,29.99,NNW,327,0.0,0.0,90,0.00,,OVC024,0.01,VWS V14.01,2013-05-11 01:18:00,
2013-05-10 20:20:00,51.4,48.6,29.99,NNW,328,0.0,0.0,90,0.00,,CLR,0.01,VWS V14.01,2013-05-11 01:20:00,
2013-05-10 20:23:00,51.4,48.6,29.99,NNW,328,0.0,0.0,90,0.00,,OVC020,0.01,VWS V14.01,2013-05-11 01:23:00,
2013-05-10 20:28:00,51.4,48.6,30.00,NNW,327,0.0,0.0,90,0.00,,OVC020,0.01,VWS V14.01,2013-05-11 01:28:00,
2013-05-10 20:30:00,51.4,48.6,30.00,NNW,328,0.0,0.0,90,0.00,,CLR,0.01,VWS V14.01,2013-05-11 01:30:00,
2013-05-10 20:33:00,51.4,48.6,30.00,NNW,328,0.0,0.0,90,0.00,,OVC020,0.01,VWS V14.01,2013-05-11 01:33:00,
2013-05-10 20:38:00,51.4,48.6,30.00,NNW,327,0.0,0.0,90,0.00,,OVC020,0.01,VWS V14.01,2013-05-11 01:38:00,
2013-05-10 20:40:00,51.4,48.9,30.00,NNW,328,0.0,0.0,91,0.00,,CLR,0.01,VWS V14.01,2013-05-11 01:40:00,
2013-05-10 20:43:00,51.3,48.5,30.00,WNW,296,0.0,2.0,90,0.00,,OVC018,0.01,VWS V14.01,2013-05-11 01:43:00,
2013-05-10 20:48:00,51.3,48.5,30.00,NW,306,0.0,2.0,90,0.00,,OVC018,0.01,VWS V14.01,2013-05-11 01:48:00,
2013-05-10 20:50:00,51.3,48.5,30.00,NW,306,0.0,2.0,90,0.00,,CLR,0.01,VWS V14.01,2013-05-11 01:50:00,
2013-05-10 20:53:00,51.3,48.5,30.00,WNW,303,0.0,0.0,90,0.00,,OVC018,0.01,VWS V14.01,2013-05-11 01:53:00,
2013-05-10 20:58:00,51.3,48.5,30.00,North,359,0.0,0.0,90,0.00,,OVC018,0.01,VWS V14.01,2013-05-11 01:58:00,
2013-05-10 21:00:00,51.3,48.5,30.00,North,359,0.0,0.0,90,0.00,,CLR,0.01,VWS V14.01,2013-05-11 02:00:00,
2013-05-10 21:03:00,51.3,48.8,30.00,North,360,0.0,0.0,91,0.00,,OVC018,0.01,VWS V14.01,2013-05-11 02:03:00,
2013-05-10 21:08:00,51.3,48.8,30.00,West,280,0.0,0.0,91,0.00,,OVC018,0.01,VWS V14.01,2013-05-11 02:08:00,
2013-05-10 21:10:00,51.3,48.8,30.00,West,280,0.0,1.0,91,0.00,,CLR,0.01,VWS V14.01,2013-05-11 02:10:00,
2013-05-10 21:13:00,51.3,48.8,30.00,WNW,283,0.0,1.0,91,0.00,,OVC018,0.01,VWS V14.01,2013-05-11 02:13:00,
2013-05-10 21:18:00,51.2,48.7,30.00,WNW,285,1.0,1.0,91,0.00,,OVC018,0.01,VWS V14.01,2013-05-11 02:18:00,
2013-05-10 21:20:00,51.2,48.7,30.00,WNW,285,0.0,2.0,91,0.00,,CLR,0.01,VWS V14.01,2013-05-11 02:20:00,
2013-05-10 21:23:00,51.3,48.8,30.00,NNE,23,0.0,1.0,91,0.00,,OVC016,0.01,VWS V14.01,2013-05-11 02:23:00,
2013-05-10 21:29:00,51.3,48.8,30.00,NNE,15,0.0,0.0,91,0.00,,OVC016,0.01,VWS V14.01,2013-05-11 02:29:00,
2013-05-10 21:30:00,51.3,48.8,30.00,NNE,16,0.0,2.0,91,0.00,,CLR,0.01,VWS V14.01,2013-05-11 02:30:00,
2013-05-10 21:34:00,51.2,48.7,30.00,West,265,1.0,1.0,91,0.00,,OVC016,0.01,VWS V14.01,2013-05-11 02:34:00,
2013-05-10 21:39:00,51.2,48.7,30.00,NW,314,0.0,1.0,91,0.00,,OVC016,0.01,VWS V14.01,2013-05-11 02:39:00,
2013-05-10 21:40:00,51.2,48.7,30.00,NW,314,0.0,1.0,91,0.00,,CLR,0.01,VWS V14.01,2013-05-11 02:40:00,
2013-05-10 21:44:00,51.1,48.3,30.00,NNE,13,1.0,2.0,90,0.00,,OVC016,0.01,VWS V14.01,2013-05-11 02:44:00,
2013-05-10 21:49:00,51.1,48.3,30.00,NNE,25,0.0,0.0,90,0.00,,OVC016,0.01,VWS V14.01,2013-05-11 02:49:00,
2013-05-10 21:50:00,51.1,48.3,30.00,NNE,25,0.0,3.0,90,0.00,,CLR,0.01,VWS V14.01,2013-05-11 02:50:00,
2013-05-10 21:54:00,51.1,48.3,30.00,WNW,302,0.0,0.0,90,0.00,,OVC016,0.01,VWS V14.01,2013-05-11 02:54:00,
2013-05-10 21:59:00,51.1,48.3,30.00,WNW,300,0.0,0.0,90,0.00,,OVC016,0.01,VWS V14.01,2013-05-11 02:59:00,
2013-05-10 22:00:00,51.1,48.3,30.00,WNW,300,0.0,2.0,90,0.00,,CLR,0.01,VWS V14.01,2013-05-11 03:00:00,
2013-05-10 22:04:00,51.1,48.3,30.00,WNW,300,0.0,1.0,90,0.00,,OVC016,0.01,VWS V14.01,2013-05-11 03:04:00,
2013-05-10 22:09:00,51.1,48.3,30.00,WNW,287,0.0,1.0,90,0.00,,OVC016,0.01,VWS V14.01,2013-05-11 03:09:00,
2013-05-10 22:10:00,51.1,48.3,30.00,WNW,284,0.0,1.0,90,0.00,,CLR,0.01,VWS V14.01,2013-05-11 03:10:00,
2013-05-10 22:14:00,51.0,48.2,30.00,WNW,287,0.0,2.0,90,0.00,,OVC016,0.01,VWS V14.01,2013-05-11 03:14:00,
2013-05-10 22:19:00,51.0,48.2,30.00,North,5,1.0,1.0,90,0.00,,OVC016,0.01,VWS V14.01,2013-05-11 03:19:00,
2013-05-10 22:20:00,51.1,48.3,30.00,North,5,0.0,2.0,90,0.00,,CLR,0.01,VWS V14.01,2013-05-11 03:20:00,
2013-05-10 22:24:00,51.1,48.3,30.00,North,5,2.0,2.0,90,0.00,,OVC016,0.01,VWS V14.01,2013-05-11 03:24:00,
2013-05-10 22:29:00,51.0,48.2,30.00,NE,56,0.0,2.0,90,0.00,,OVC016,0.01,VWS V14.01,2013-05-11 03:29:00,
2013-05-10 22:30:00,51.0,48.2,30.00,NNE,30,2.0,2.0,90,0.00,,CLR,0.01,VWS V14.01,2013-05-11 03:30:00,
2013-05-10 22:34:00,51.0,48.2,30.00,NNE,20,0.0,2.0,90,0.00,,OVC016,0.01,VWS V14.01,2013-05-11 03:34:00,
2013-05-10 22:39:00,51.0,48.2,30.00,North,9,0.0,0.0,90,0.00,,OVC016,0.01,VWS V14.01,2013-05-11 03:39:00,
2013-05-10 22:40:00,51.0,48.2,30.00,North,9,0.0,2.0,90,0.00,,CLR,0.01,VWS V14.01,2013-05-11 03:40:00,
2013-05-10 22:45:00,50.9,47.8,30.00,North,351,1.0,1.0,89,0.00,,OVC016,0.01,VWS V14.01,2013-05-11 03:45:00,
2013-05-10 22:50:00,50.9,47.8,30.00,NNE,19,0.0,0.0,89,0.00,,OVC016,0.01,VWS V14.01,2013-05-11 03:50:00,
2013-05-10 22:55:00,50.9,47.8,30.00,NE,36,0.0,1.0,89,0.00,,OVC016,0.01,VWS V14.01,2013-05-11 03:55:00,
2013-05-10 23:00:00,50.8,47.7,30.00,NE,43,0.0,2.0,89,0.00,,OVC016,0.01,VWS V14.01,2013-05-11 04:00:00,
2013-05-10 23:01:00,50.8,47.7,30.00,NNE,13,2.0,2.0,89,0.00,,OVC016,0.01,VWS V14.01,2013-05-11 04:01:00,
2013-05-10 23:02:00,50.8,47.7,30.00,NNE,12,0.0,2.0,89,0.00,,OVC016,0.01,VWS V14.01,2013-05-11 04:02:00,
2013-05-10 23:03:00,50.7,47.6,30.00,NNE,14,1.0,2.0,89,0.00,,OVC016,0.01,VWS V14.01,2013-05-11 04:03:00,
2013-05-10 23:08:00,50.6,47.5,30.00,NW,318,0.0,2.0,89,0.00,,OVC016,0.01,VWS V14.01,2013-05-11 04:08:00,
2013-05-10 23:10:00,50.6,47.5,30.00,NW,318,0.0,2.0,89,0.00,,CLR,0.01,VWS V14.01,2013-05-11 04:10:00,
2013-05-10 23:13:00,50.6,47.5,30.00,WNW,303,0.0,3.0,89,0.00,,OVC016,0.01,VWS V14.01,2013-05-11 04:13:00,
2013-05-10 23:18:00,50.5,47.4,30.00,North,6,0.0,3.0,89,0.00,,OVC016,0.01,VWS V14.01,2013-05-11 04:18:00,
2013-05-10 23:20:00,50.5,47.4,30.00,North,6,0.0,3.0,89,0.00,,CLR,0.01,VWS V14.01,2013-05-11 04:20:00,
2013-05-10 23:23:00,50.5,47.4,30.00,NNE,16,0.0,0.0,89,0.00,,OVC016,0.01,VWS V14.01,2013-05-11 04:23:00,
2013-05-10 23:28:00,50.4,47.3,30.00,NNE,25,0.0,0.0,89,0.00,,OVC016,0.01,VWS V14.01,2013-05-11 04:28:00,
2013-05-10 23:30:00,50.4,47.3,30.00,NNE,25,0.0,0.0,89,0.00,,CLR,0.01,VWS V14.01,2013-05-11 04:30:00,
2013-05-10 23:33:00,50.4,47.3,30.00,NNE,18,0.0,0.0,89,0.00,,OVC016,0.01,VWS V14.01,2013-05-11 04:33:00,
2013-05-10 23:38:00,50.4,47.3,30.00,NNE,16,0.0,0.0,89,0.00,,OVC016,0.01,VWS V14.01,2013-05-11 04:38:00,
2013-05-10 23:40:00,50.4,47.3,30.00,NNE,16,0.0,0.0,89,0.00,,CLR,0.01,VWS V14.01,2013-05-11 04:40:00,
2013-05-10 23:44:00,50.3,47.2,30.00,NNE,15,0.0,1.0,89,0.00,,OVC016,0.01,VWS V14.01,2013-05-11 04:44:00,
2013-05-10 23:49:00,50.4,47.6,30.00,NNE,14,0.0,0.0,90,0.00,,OVC016,0.01,VWS V14.01,2013-05-11 04:49:00,
2013-05-10 23:50:00,50.4,47.6,30.00,NNE,15,0.0,1.0,90,0.00,,CLR,0.01,VWS V14.01,2013-05-11 04:50:00,
2013-05-10 23:54:00,50.4,47.6,30.00,NNE,15,0.0,0.0,90,0.00,,OVC016,0.01,VWS V14.01,2013-05-11 04:54:00,
2013-05-10 23:59:00,50.4,47.6,30.00,NNE,15,0.0,0.0,90,0.00,,OVC016,0.00,VWS V14.01,2013-05-11 04:59:00,